Time;durP1;ratioP1;P1;durP2;ratioP2;P2;SDS_P1;SDS_P2;PMS_P1;PMS_P2;Temp;Humidity;BMP_temperature;BMP_pressure;BME280_temperature;BME280_humidity;BME280_pressure;Samples;Min_cycle;Max_cycle;Signal;HPM_P1;HPM_P2
2021/06/23 00:00:04;;;;;;;4.57;2.90;;;22.50;73.30;;;;;;2352969;53;21108;-68
2021/06/23 00:02:30;;;;;;;4.20;2.92;;;22.40;73.40;;;;;;2350764;53;20969;-67
2021/06/23 00:04:56;;;;;;;5.53;3.47;;;22.40;73.60;;;;;;2345357;53;20947;-70
2021/06/23 00:07:23;;;;;;;5.07;3.30;;;22.40;73.60;;;;;;2349401;53;20892;-69
2021/06/23 00:09:50;;;;;;;4.75;3.70;;;22.40;73.70;;;;;;2420419;52;20970;-67
2021/06/23 00:12:16;;;;;;;4.03;2.85;;;22.40;73.80;;;;;;2346385;53;20910;-67
2021/06/23 00:14:42;;;;;;;5.35;3.62;;;22.40;74.00;;;;;;2348297;53;20976;-67
2021/06/23 00:17:09;;;;;;;4.35;3.25;;;22.40;74.10;;;;;;2345878;53;21005;-66
2021/06/23 00:19:35;;;;;;;4.47;3.10;;;22.40;74.80;;;;;;2499062;52;21041;-68
2021/06/23 00:22:04;;;;;;;3.80;2.80;;;22.40;74.20;;;;;;2350695;53;20951;-69
2021/06/23 00:24:30;;;;;;;4.05;3.10;;;22.40;74.20;;;;;;2422972;52;20947;-67
2021/06/23 00:26:57;;;;;;;5.40;4.18;;;22.40;74.30;;;;;;2349846;53;21038;-67
2021/06/23 00:29:23;;;;;;;5.32;4.40;;;22.40;74.20;;;;;;2561995;52;20961;-71
2021/06/23 00:31:49;;;;;;;4.53;3.60;;;22.40;74.10;;;;;;2348596;53;20955;-68
2021/06/23 00:34:16;;;;;;;4.53;3.05;;;22.40;74.00;;;;;;2348378;53;20969;-71
2021/06/23 00:36:45;;;;;;;4.57;3.20;;;22.40;74.00;;;;;;2348955;53;20982;-69
2021/06/23 00:39:11;;;;;;;4.90;3.65;;;22.40;74.00;;;;;;2345827;53;21009;-71
2021/06/23 00:41:37;;;;;;;5.72;4.07;;;22.30;74.00;;;;;;2348489;53;21855;-71
2021/06/23 00:44:04;;;;;;;4.97;4.03;;;22.30;74.10;;;;;;2356352;53;21021;-70
2021/06/23 00:46:30;;;;;;;4.55;3.47;;;22.30;74.10;;;;;;2348859;53;20971;-67
2021/06/23 00:48:57;;;;;;;4.22;3.10;;;22.30;74.20;;;;;;2588144;52;21058;-70
2021/06/23 00:51:24;;;;;;;5.53;4.20;;;22.30;74.20;;;;;;2349660;53;20994;-68
2021/06/23 00:53:50;;;;;;;6.00;4.57;;;22.30;74.30;;;;;;2346781;53;21019;-68
2021/06/23 00:56:17;;;;;;;6.30;4.87;;;22.30;74.40;;;;;;2345564;53;20945;-67
2021/06/23 00:58:47;;;;;;;7.87;5.60;;;22.30;74.30;;;;;;2353173;53;20958;-68
2021/06/23 01:01:13;;;;;;;7.50;6.03;;;22.30;74.20;;;;;;2349415;53;20950;-71
2021/06/23 01:03:40;;;;;;;7.80;6.10;;;22.30;74.10;;;;;;2443581;52;20997;-69
2021/06/23 01:06:08;;;;;;;7.72;6.50;;;22.30;74.00;;;;;;2354045;53;21005;-67
2021/06/23 01:08:36;;;;;;;7.65;6.50;;;22.30;73.90;;;;;;2345598;53;21075;-67
2021/06/23 01:11:05;;;;;;;6.07;4.95;;;22.20;73.70;;;;;;2347095;53;20927;-67
2021/06/23 01:13:35;;;;;;;7.82;5.85;;;22.20;73.80;;;;;;2351440;53;20991;-67
2021/06/23 01:16:03;;;;;;;8.10;6.62;;;22.20;74.00;;;;;;2350209;53;21018;-67
2021/06/23 01:18:29;;;;;;;8.68;7.10;;;22.20;74.70;;;;;;2348651;53;20918;-67
2021/06/23 01:20:56;;;;;;;6.07;5.10;;;22.10;73.80;;;;;;2347833;53;20989;-71
2021/06/23 01:23:22;;;;;;;8.02;6.03;;;22.10;74.00;;;;;;2346195;53;21002;-67
2021/06/23 01:25:49;;;;;;;8.15;7.10;;;22.10;74.10;;;;;;2349734;53;20950;-68
2021/06/23 01:28:15;;;;;;;9.88;7.00;;;22.00;74.10;;;;;;2352856;53;20918;-67
2021/06/23 01:30:41;;;;;;;7.62;5.97;;;22.00;74.10;;;;;;2346675;53;21034;-70
2021/06/23 01:33:09;;;;;;;6.90;4.97;;;22.00;74.20;;;;;;2353334;53;20942;-67
2021/06/23 01:35:35;;;;;;;6.97;5.28;;;22.00;74.20;;;;;;2346566;53;21431;-67
2021/06/23 01:38:04;;;;;;;6.95;5.70;;;22.00;74.30;;;;;;2351315;53;20947;-67
2021/06/23 01:40:30;;;;;;;6.12;4.45;;;22.00;74.30;;;;;;2346469;53;20970;-67
2021/06/23 01:42:59;;;;;;;11.18;6.32;;;22.00;74.50;;;;;;2352460;53;20986;-70
2021/06/23 01:45:27;;;;;;;7.05;5.40;;;22.00;74.50;;;;;;2463168;52;21009;-67
2021/06/23 01:47:54;;;;;;;8.35;5.72;;;21.90;74.40;;;;;;2348895;53;21774;-68
2021/06/23 01:50:21;;;;;;;5.85;4.65;;;21.90;74.50;;;;;;2353820;53;20938;-68
2021/06/23 01:52:48;;;;;;;6.25;5.03;;;21.90;74.50;;;;;;2348689;53;21003;-70
2021/06/23 01:55:27;;;;;;;8.65;6.93;;;21.90;74.60;;;;;;2350525;53;20958;-67
2021/06/23 01:58:01;;;;;;;9.32;7.65;;;21.90;74.60;;;;;;2350743;53;20939;-69
2021/06/23 02:00:33;;;;;;;8.40;6.75;;;21.90;74.40;;;;;;2542208;52;21462;-70
2021/06/23 02:03:03;;;;;;;10.32;7.20;;;21.90;74.70;;;;;;2349142;53;22036;-67
2021/06/23 02:05:37;;;;;;;9.20;6.28;;;21.90;74.80;;;;;;2347226;53;20958;-71
2021/06/23 02:08:19;;;;;;;7.30;6.20;;;21.90;74.80;;;;;;2351639;53;20982;-67
2021/06/23 02:11:06;;;;;;;10.13;7.50;;;21.90;74.90;;;;;;2346782;53;21423;-68
2021/06/23 02:14:07;;;;;;;8.77;7.07;;;21.90;75.00;;;;;;2327936;53;20994;-68
2021/06/23 02:16:34;;;;;;;9.60;8.02;;;21.90;74.40;;;;;;2351923;53;21550;-67
2021/06/23 02:19:04;;;;;;;10.32;7.78;;;21.90;75.00;;;;;;2352173;53;21340;-67
2021/06/23 02:21:31;;;;;;;9.35;7.20;;;21.90;74.90;;;;;;2346057;53;21002;-67
2021/06/23 02:23:57;;;;;;;11.95;8.52;;;21.90;75.00;;;;;;2351804;53;20926;-70
2021/06/23 02:26:25;;;;;;;8.93;7.07;;;21.80;75.00;;;;;;2348156;53;20963;-67
2021/06/23 02:28:53;;;;;;;9.43;7.25;;;21.80;75.10;;;;;;2347672;53;20994;-70
2021/06/23 02:31:19;;;;;;;10.05;7.97;;;21.80;75.10;;;;;;2587346;52;20903;-67
2021/06/23 02:33:45;;;;;;;9.70;7.53;;;21.80;75.20;;;;;;2348416;53;20970;-67
2021/06/23 02:36:11;;;;;;;11.90;9.50;;;21.80;75.30;;;;;;2346546;53;20938;-67
2021/06/23 02:38:38;;;;;;;11.30;8.88;;;21.80;75.30;;;;;;2346878;53;20938;-68
2021/06/23 02:41:04;;;;;;;9.90;8.27;;;21.90;75.50;;;;;;2352698;53;20958;-67
2021/06/23 02:43:31;;;;;;;14.38;10.60;;;21.80;75.40;;;;;;2348311;53;20930;-66
2021/06/23 02:46:00;;;;;;;14.13;8.07;;;21.90;75.40;;;;;;2410188;52;20974;-71
2021/06/23 02:48:26;;;;;;;10.63;7.65;;;21.90;75.40;;;;;;2352431;53;20978;-68
2021/06/23 02:51:05;;;;;;;11.00;7.87;;;21.90;75.40;;;;;;2344967;53;20930;-67
2021/06/23 02:53:32;;;;;;;10.93;8.75;;;21.90;75.20;;;;;;2356127;53;21026;-70
2021/06/23 02:55:58;;;;;;;10.98;8.65;;;21.90;75.40;;;;;;2349497;53;21003;-67
2021/06/23 02:58:24;;;;;;;12.82;8.65;;;21.90;75.40;;;;;;2347848;53;20914;-68
2021/06/23 03:00:51;;;;;;;11.12;8.90;;;22.00;75.50;;;;;;2349855;53;20997;-71
2021/06/23 03:03:18;;;;;;;9.43;7.80;;;21.90;75.40;;;;;;2348841;53;21025;-69
2021/06/23 03:05:45;;;;;;;10.77;8.27;;;21.90;75.40;;;;;;2345594;53;21001;-68
2021/06/23 03:08:11;;;;;;;10.88;8.82;;;21.90;75.40;;;;;;2556281;52;22482;-67
2021/06/23 03:10:37;;;;;;;10.20;8.32;;;21.90;75.40;;;;;;2346222;53;20965;-67
2021/06/23 03:13:03;;;;;;;12.48;10.05;;;21.90;75.40;;;;;;2348736;53;21002;-68
2021/06/23 03:15:30;;;;;;;12.70;10.40;;;21.90;75.40;;;;;;2363026;53;21438;-69
2021/06/23 03:17:56;;;;;;;12.77;9.70;;;21.90;75.30;;;;;;2345850;53;20978;-69
2021/06/23 03:20:22;;;;;;;11.57;9.43;;;21.90;75.30;;;;;;2346777;53;20965;-67
2021/06/23 03:22:49;;;;;;;10.38;8.63;;;21.90;75.40;;;;;;2346445;53;21445;-68
2021/06/23 03:25:15;;;;;;;12.45;9.48;;;21.90;75.40;;;;;;2348254;53;20987;-67
2021/06/23 03:27:41;;;;;;;12.75;10.32;;;21.90;75.40;;;;;;2348481;53;20926;-70
2021/06/23 03:30:09;;;;;;;13.23;10.05;;;21.90;75.40;;;;;;2349776;53;20970;-67
2021/06/23 03:32:35;;;;;;;13.00;9.95;;;21.90;75.40;;;;;;2415774;52;21411;-68
2021/06/23 03:35:02;;;;;;;12.40;8.05;;;21.90;75.40;;;;;;2347637;53;20958;-67
2021/06/23 03:37:28;;;;;;;11.93;8.85;;;21.90;75.40;;;;;;2360027;53;21018;-67
2021/06/23 03:39:56;;;;;;;11.60;9.07;;;21.90;75.50;;;;;;2348826;53;20958;-69
2021/06/23 03:42:22;;;;;;;14.02;9.90;;;21.90;75.70;;;;;;2344751;53;21001;-67
2021/06/23 03:44:48;;;;;;;15.35;10.40;;;21.90;75.70;;;;;;2351620;53;20974;-67
2021/06/23 03:47:14;;;;;;;13.55;10.38;;;21.90;75.70;;;;;;2341664;53;20986;-68
2021/06/23 03:49:43;;;;;;;13.25;9.75;;;21.90;75.70;;;;;;2344739;53;20984;-71
2021/06/23 03:52:10;;;;;;;15.77;10.07;;;21.90;75.70;;;;;;2330147;55;21057;-67
2021/06/23 03:54:36;;;;;;;13.75;10.13;;;21.90;75.70;;;;;;2351357;53;20922;-67
2021/06/23 03:57:07;;;;;;;12.30;9.02;;;21.90;76.40;;;;;;2352153;53;20966;-67
2021/06/23 03:59:33;;;;;;;10.88;8.57;;;21.90;75.60;;;;;;2347095;53;21487;-69
2021/06/23 04:01:59;;;;;;;13.73;9.98;;;21.90;75.70;;;;;;2346541;53;21447;-68
2021/06/23 04:04:29;;;;;;;14.45;10.18;;;21.90;75.70;;;;;;2347233;53;20958;-67
2021/06/23 04:06:55;;;;;;;13.38;9.75;;;21.90;75.70;;;;;;2349727;53;21414;-68
2021/06/23 04:09:21;;;;;;;13.45;9.52;;;21.90;75.80;;;;;;2444621;52;21648;-69
2021/06/23 04:11:47;;;;;;;14.15;10.35;;;21.90;75.80;;;;;;2347737;53;21075;-67
2021/06/23 04:14:15;;;;;;;14.68;9.48;;;21.90;75.80;;;;;;2350362;53;20926;-68
2021/06/23 04:16:41;;;;;;;12.40;9.23;;;21.90;75.80;;;;;;2348328;53;20955;-67
2021/06/23 04:19:08;;;;;;;13.43;10.07;;;21.90;75.90;;;;;;2347528;53;21056;-69
2021/06/23 04:21:34;;;;;;;13.60;10.25;;;21.90;76.00;;;;;;2350609;53;21382;-67
2021/06/23 04:24:00;;;;;;;12.82;9.25;;;21.90;76.00;;;;;;2349382;53;21878;-69
2021/06/23 04:26:26;;;;;;;11.55;8.85;;;21.90;76.10;;;;;;2352715;53;21555;-70
2021/06/23 04:28:58;;;;;;;12.95;9.45;;;22.00;76.10;;;;;;2408883;53;20910;-68
2021/06/23 04:31:25;;;;;;;10.68;8.32;;;22.00;75.90;;;;;;2347321;53;21023;-70
2021/06/23 04:33:51;;;;;;;13.48;10.02;;;22.00;75.90;;;;;;2522835;52;21011;-69
2021/06/23 04:36:17;;;;;;;14.10;9.93;;;22.00;76.00;;;;;;2348624;53;20938;-68
2021/06/23 04:38:43;;;;;;;14.00;10.15;;;22.00;76.00;;;;;;2347056;53;20926;-67
2021/06/23 04:41:10;;;;;;;12.70;8.88;;;22.00;76.10;;;;;;2394263;53;20966;-67
2021/06/23 04:43:37;;;;;;;10.98;9.05;;;22.00;76.20;;;;;;2348609;53;20998;-68
2021/06/23 04:46:05;;;;;;;13.73;9.80;;;22.00;76.20;;;;;;2351846;53;21086;-66
2021/06/23 04:48:33;;;;;;;11.85;9.15;;;22.10;76.30;;;;;;2352505;53;20958;-67
2021/06/23 04:51:00;;;;;;;14.27;10.00;;;22.10;76.30;;;;;;2346293;53;20978;-71
2021/06/23 04:53:26;;;;;;;11.40;8.90;;;22.10;76.30;;;;;;2349384;53;21065;-68
2021/06/23 04:55:55;;;;;;;15.43;10.73;;;22.10;76.40;;;;;;2365045;53;20970;-67
2021/06/23 04:58:22;;;;;;;11.38;8.77;;;22.10;76.40;;;;;;2586834;52;20994;-68
2021/06/23 05:00:49;;;;;;;14.07;9.88;;;22.20;76.50;;;;;;2348907;53;21038;-70
2021/06/23 05:03:15;;;;;;;13.45;9.70;;;22.20;76.40;;;;;;2573099;52;21440;-67
2021/06/23 05:05:41;;;;;;;15.02;10.80;;;22.20;76.40;;;;;;2345878;53;20941;-70
2021/06/23 05:08:08;;;;;;;14.10;10.93;;;22.20;76.40;;;;;;2347870;53;20914;-67
2021/06/23 05:10:35;;;;;;;13.38;9.30;;;22.30;76.30;;;;;;2356179;53;20941;-67
2021/06/23 05:13:02;;;;;;;16.70;11.35;;;22.30;76.30;;;;;;2348562;53;21294;-68
2021/06/23 05:15:31;;;;;;;14.60;10.85;;;22.30;76.30;;;;;;2349345;53;20982;-68
2021/06/23 05:17:57;;;;;;;13.18;10.02;;;22.30;76.20;;;;;;2354001;53;21034;-69
2021/06/23 05:20:23;;;;;;;16.52;10.95;;;22.30;76.30;;;;;;2346904;53;21002;-68
2021/06/23 05:22:52;;;;;;;14.87;11.32;;;22.40;76.40;;;;;;2348738;53;21307;-68
2021/06/23 05:25:19;;;;;;;13.32;10.50;;;22.40;76.30;;;;;;2346815;53;21487;-68
2021/06/23 05:27:46;;;;;;;11.38;8.65;;;22.40;76.20;;;;;;2352112;53;20949;-68
2021/06/23 05:30:14;;;;;;;13.07;10.30;;;22.40;76.30;;;;;;2404720;52;21018;-68
2021/06/23 05:32:40;;;;;;;16.98;10.77;;;22.40;76.20;;;;;;2347348;52;2712160;-67
2021/06/23 05:35:07;;;;;;;12.88;10.35;;;22.50;76.30;;;;;;2349107;53;21001;-67
2021/06/23 05:37:33;;;;;;;12.25;9.25;;;22.50;76.20;;;;;;2429107;53;21150;-67
2021/06/23 05:39:59;;;;;;;13.23;10.05;;;22.50;76.20;;;;;;2346486;53;21022;-66
2021/06/23 05:42:25;;;;;;;13.15;9.88;;;22.50;76.30;;;;;;2349358;53;20942;-66
2021/06/23 05:44:51;;;;;;;16.62;11.45;;;22.50;76.20;;;;;;2347765;53;21000;-68
2021/06/23 05:47:19;;;;;;;13.75;10.32;;;22.50;76.30;;;;;;2348770;53;21001;-68
2021/06/23 05:49:48;;;;;;;13.27;10.82;;;22.60;76.40;;;;;;2347227;53;21478;-69
2021/06/23 05:52:14;;;;;;;13.27;10.55;;;22.60;76.50;;;;;;2587747;52;20990;-68
2021/06/23 05:54:40;;;;;;;15.25;10.95;;;22.60;76.50;;;;;;2345962;53;21461;-66
2021/06/23 05:57:07;;;;;;;12.45;10.10;;;22.70;76.50;;;;;;2434225;52;21454;-66
2021/06/23 05:59:33;;;;;;;14.20;10.57;;;22.70;76.40;;;;;;2348210;53;20969;-69
2021/06/23 06:01:59;;;;;;;18.20;10.18;;;22.70;76.40;;;;;;2355016;53;20975;-69
2021/06/23 06:04:25;;;;;;;11.02;8.45;;;22.80;76.40;;;;;;2345231;53;20981;-67
2021/06/23 06:06:52;;;;;;;13.27;9.40;;;22.80;76.30;;;;;;2355366;53;20950;-68
2021/06/23 06:09:19;;;;;;;12.68;10.02;;;22.80;76.40;;;;;;2345774;53;20918;-68
2021/06/23 06:11:45;;;;;;;12.18;9.85;;;22.90;76.50;;;;;;2347581;53;20914;-68
2021/06/23 06:14:11;;;;;;;11.77;9.23;;;22.90;77.20;;;;;;2471872;52;20962;-67
2021/06/23 06:16:40;;;;;;;12.45;9.65;;;22.90;76.40;;;;;;2346410;53;20970;-68
2021/06/23 06:19:07;;;;;;;10.20;8.07;;;23.00;76.10;;;;;;2348120;53;21026;-67
2021/06/23 06:21:34;;;;;;;11.05;9.27;;;23.00;76.10;;;;;;2346227;53;21494;-68
2021/06/23 06:24:00;;;;;;;11.32;8.15;;;23.00;75.90;;;;;;2346937;53;21030;-67
2021/06/23 06:26:27;;;;;;;12.00;9.27;;;23.00;75.90;;;;;;2346533;53;20934;-67
2021/06/23 06:28:54;;;;;;;10.52;8.25;;;23.10;76.00;;;;;;2349027;53;21061;-68
2021/06/23 06:31:23;;;;;;;11.50;8.32;;;23.10;75.90;;;;;;2478677;52;21277;-68
2021/06/23 06:33:51;;;;;;;10.10;7.40;;;23.20;76.00;;;;;;2354198;53;20918;-67
2021/06/23 06:36:17;;;;;;;10.35;7.65;;;23.20;76.00;;;;;;2346788;53;21715;-67
2021/06/23 06:38:44;;;;;;;10.68;8.65;;;23.20;76.00;;;;;;2349078;53;20966;-68
2021/06/23 06:41:10;;;;;;;12.25;9.45;;;23.30;76.00;;;;;;2345152;53;20934;-68
2021/06/23 06:43:36;;;;;;;11.25;8.98;;;23.30;75.70;;;;;;2349018;53;20945;-68
2021/06/23 06:46:02;;;;;;;11.43;8.82;;;23.30;75.70;;;;;;2346099;53;21050;-68
2021/06/23 06:48:29;;;;;;;11.70;8.57;;;23.30;75.50;;;;;;2348914;53;21058;-68
2021/06/23 06:50:55;;;;;;;10.95;8.43;;;23.30;75.40;;;;;;2351520;53;20950;-67
2021/06/23 06:53:21;;;;;;;10.00;7.80;;;23.40;75.40;;;;;;2385386;53;21009;-72
2021/06/23 06:55:47;;;;;;;11.23;8.57;;;23.40;75.30;;;;;;2330574;53;21019;-69
2021/06/23 06:58:14;;;;;;;10.95;8.32;;;23.40;75.30;;;;;;2352887;53;20942;-70
2021/06/23 07:00:41;;;;;;;11.32;8.35;;;23.40;75.30;;;;;;2346391;53;21030;-69
2021/06/23 07:03:07;;;;;;;11.05;7.60;;;23.40;75.20;;;;;;2347428;53;21002;-67
2021/06/23 07:05:33;;;;;;;10.02;7.70;;;23.40;75.20;;;;;;2349247;53;21010;-67
2021/06/23 07:07:59;;;;;;;11.10;8.63;;;23.50;75.30;;;;;;2448169;52;21078;-70
2021/06/23 07:10:25;;;;;;;10.48;8.02;;;23.50;75.20;;;;;;2353859;53;20960;-67
2021/06/23 07:12:52;;;;;;;11.88;8.48;;;23.50;75.10;;;;;;2350026;53;20994;-71
2021/06/23 07:15:18;;;;;;;10.18;8.15;;;23.50;75.00;;;;;;2349219;53;20966;-68
2021/06/23 07:17:45;;;;;;;11.00;8.93;;;23.50;74.80;;;;;;2348164;53;20974;-67
2021/06/23 07:20:11;;;;;;;10.38;7.72;;;23.50;74.70;;;;;;2348059;53;20939;-67
2021/06/23 07:22:37;;;;;;;9.88;7.90;;;23.60;74.80;;;;;;2349553;54;21013;-72
2021/06/23 07:25:05;;;;;;;9.93;7.95;;;23.60;75.00;;;;;;2348160;53;21026;-68
2021/06/23 07:27:34;;;;;;;9.48;7.45;;;23.60;75.00;;;;;;2459770;52;20941;-68
2021/06/23 07:30:01;;;;;;;10.35;7.72;;;23.60;75.10;;;;;;2328514;54;21259;-68
2021/06/23 07:32:34;;;;;;;9.23;7.12;;;23.70;75.20;;;;;;2365587;52;20997;-68
2021/06/23 07:37:45;;;;;;;9.02;7.03;;;23.70;75.20;;;;;;2357898;52;21412;-68
2021/06/23 07:40:12;;;;;;;11.12;8.02;;;23.70;74.80;;;;;;2344242;53;20922;-68
2021/06/23 07:42:38;;;;;;;9.00;7.55;;;23.70;74.80;;;;;;2349917;53;20982;-67
2021/06/23 07:45:06;;;;;;;8.88;7.00;;;23.70;74.80;;;;;;2349191;53;20970;-67
2021/06/23 07:47:37;;;;;;;8.27;6.72;;;23.70;74.80;;;;;;2346654;53;20982;-68
2021/06/23 07:50:05;;;;;;;9.02;6.72;;;23.70;74.60;;;;;;2352268;53;21057;-68
2021/06/23 07:52:42;;;;;;;7.90;6.35;;;23.80;74.70;;;;;;2349667;53;20954;-68
2021/06/23 07:55:40;;;;;;;7.87;6.62;;;23.70;74.50;;;;;;2352420;53;21037;-68
2021/06/23 08:01:36;;;;;;;8.02;6.00;;;23.80;74.80;;;;;;2350058;53;21057;-69
2021/06/23 08:16:01;;;;;;;6.62;4.35;;;23.90;75.20;;;;;;2475610;52;20938;-69
2021/06/23 08:18:27;;;;;;;8.02;6.10;;;24.00;75.00;;;;;;2349662;53;21034;-69
2021/06/23 08:20:54;;;;;;;8.30;6.18;;;24.10;75.20;;;;;;2349173;53;21023;-69
2021/06/23 08:23:20;;;;;;;7.35;5.60;;;24.10;75.20;;;;;;2377398;52;20986;-69
2021/06/23 08:25:47;;;;;;;8.07;6.40;;;24.10;75.30;;;;;;2497426;52;21486;-67
2021/06/23 08:28:13;;;;;;;8.18;6.55;;;24.10;75.40;;;;;;2352432;53;20986;-68
2021/06/23 08:30:43;;;;;;;6.85;5.97;;;24.10;75.30;;;;;;2350309;53;20974;-68
2021/06/23 08:33:09;;;;;;;7.95;6.30;;;24.20;75.20;;;;;;2351487;53;21625;-68
2021/06/23 08:35:35;;;;;;;8.35;6.35;;;24.20;75.20;;;;;;2348714;53;21041;-70
2021/06/23 08:38:01;;;;;;;8.13;6.15;;;24.30;75.20;;;;;;2349165;53;21030;-69
2021/06/23 08:40:30;;;;;;;8.25;6.37;;;24.30;75.20;;;;;;2349822;53;21006;-68
2021/06/23 08:42:56;;;;;;;7.43;6.05;;;24.40;75.40;;;;;;2348188;53;20970;-68
2021/06/23 08:45:22;;;;;;;7.20;6.00;;;24.50;75.40;;;;;;2345378;53;20926;-68
2021/06/23 08:47:49;;;;;;;7.90;6.37;;;24.50;75.30;;;;;;2354016;53;20994;-67
2021/06/23 08:50:21;;;;;;;6.95;5.95;;;24.60;75.00;;;;;;2349045;53;20974;-69
2021/06/23 08:52:47;;;;;;;7.93;6.35;;;24.70;74.30;;;;;;2375870;52;20987;-67
2021/06/23 08:55:19;;;;;;;7.03;5.60;;;24.70;74.70;;;;;;2349836;53;20951;-68
2021/06/23 08:57:58;;;;;;;7.12;5.95;;;24.80;74.90;;;;;;2588518;52;20942;-68
2021/06/23 09:00:26;;;;;;;7.00;5.45;;;24.90;75.00;;;;;;2563288;52;20954;-72
2021/06/23 09:02:58;;;;;;;7.85;6.55;;;24.90;75.00;;;;;;2349070;53;21925;-69
2021/06/23 09:05:26;;;;;;;8.15;6.18;;;25.00;74.90;;;;;;2478206;52;21019;-70
2021/06/23 09:07:59;;;;;;;8.07;6.10;;;25.00;74.30;;;;;;2325811;54;21769;-68
2021/06/23 09:10:35;;;;;;;6.78;5.90;;;25.10;74.80;;;;;;2347935;53;20990;-69
2021/06/23 09:13:21;;;;;;;7.07;6.03;;;25.20;73.70;;;;;;2353572;53;20930;-68
2021/06/23 09:16:00;;;;;;;6.53;5.25;;;25.20;73.20;;;;;;2350839;53;20954;-69
2021/06/23 09:18:37;;;;;;;7.18;5.85;;;25.30;73.50;;;;;;2467115;52;21762;-69
2021/06/23 09:21:16;;;;;;;5.93;5.03;;;25.40;74.30;;;;;;2348836;53;20946;-68
2021/06/23 09:23:53;;;;;;;7.20;6.05;;;25.40;73.30;;;;;;2347713;53;20958;-68
2021/06/23 09:26:58;;;;;;;6.53;5.28;;;25.50;73.50;;;;;;2345944;53;20958;-68
2021/06/23 09:29:24;;;;;;;6.90;5.37;;;25.60;72.60;;;;;;2349469;53;20969;-69
2021/06/23 09:32:01;;;;;;;6.57;5.57;;;25.60;74.30;;;;;;2351977;53;20935;-68
2021/06/23 09:34:34;;;;;;;7.07;5.53;;;25.70;72.90;;;;;;2347990;53;21038;-69
2021/06/23 09:37:02;;;;;;;6.65;5.53;;;25.70;73.40;;;;;;2349175;53;20977;-68
2021/06/23 09:39:29;;;;;;;6.87;6.10;;;25.80;73.70;;;;;;2346335;53;20935;-69
2021/06/23 09:41:56;;;;;;;7.35;5.68;;;25.80;73.30;;;;;;2346628;53;20906;-68
2021/06/23 09:44:23;;;;;;;7.82;4.85;;;25.90;73.30;;;;;;2351832;53;20935;-68
2021/06/23 09:46:50;;;;;;;6.50;5.50;;;25.90;73.50;;;;;;2430825;52;21403;-68
2021/06/23 09:49:26;;;;;;;6.22;5.20;;;25.90;73.10;;;;;;2349615;53;20979;-68
2021/06/23 09:51:54;;;;;;;7.47;5.90;;;26.00;72.00;;;;;;2349593;53;20971;-68
2021/06/23 09:54:22;;;;;;;5.95;4.97;;;26.00;72.70;;;;;;2353919;53;21026;-68
2021/06/23 09:57:17;;;;;;;6.80;5.35;;;26.00;72.90;;;;;;2347477;53;20943;-68
2021/06/23 09:59:50;;;;;;;6.60;5.30;;;26.00;71.30;;;;;;2346243;53;21053;-68
2021/06/23 10:02:32;;;;;;;6.80;5.57;;;26.10;72.90;;;;;;2448959;52;21018;-68
2021/06/23 10:05:01;;;;;;;6.60;5.50;;;26.10;71.50;;;;;;2344320;53;20964;-71
2021/06/23 10:07:41;;;;;;;7.03;6.10;;;26.20;72.70;;;;;;2352661;53;20930;-68
2021/06/23 10:10:08;;;;;;;7.12;5.47;;;26.20;71.10;;;;;;2345571;53;21002;-71
2021/06/23 10:12:34;;;;;;;7.87;6.75;;;26.20;72.40;;;;;;2346112;53;20962;-68
2021/06/23 10:15:00;;;;;;;7.55;5.90;;;26.20;72.40;;;;;;2345809;53;21069;-70
2021/06/23 10:17:27;;;;;;;7.95;6.65;;;26.20;72.40;;;;;;2348013;53;21778;-68
2021/06/23 10:19:54;;;;;;;7.68;6.87;;;26.20;72.60;;;;;;2349805;53;20934;-68
2021/06/23 10:22:20;;;;;;;7.47;6.40;;;26.20;72.10;;;;;;2348981;53;21000;-68
2021/06/23 10:24:53;;;;;;;7.50;5.75;;;26.20;72.00;;;;;;2353568;53;21400;-68
2021/06/23 10:27:19;;;;;;;6.35;5.70;;;26.20;72.00;;;;;;2349305;53;21034;-68
2021/06/23 10:29:45;;;;;;;7.07;5.90;;;26.20;72.10;;;;;;2446809;53;21025;-72
2021/06/23 10:32:11;;;;;;;6.32;5.35;;;26.20;72.00;;;;;;2349882;53;20934;-68
2021/06/23 10:34:38;;;;;;;7.30;6.28;;;26.20;72.10;;;;;;2348760;53;20986;-71
2021/06/23 10:37:08;;;;;;;6.62;5.78;;;26.20;72.30;;;;;;2587927;52;20942;-71
2021/06/23 10:39:34;;;;;;;6.55;5.15;;;26.20;72.00;;;;;;2347865;53;21073;-67
2021/06/23 10:42:04;;;;;;;7.80;6.25;;;26.20;72.00;;;;;;2343509;53;21025;-68
2021/06/23 10:44:40;;;;;;;7.28;5.60;;;26.30;71.80;;;;;;2349995;53;20928;-68
2021/06/23 10:47:10;;;;;;;8.77;6.30;;;26.30;71.50;;;;;;2349211;53;21654;-68
2021/06/23 10:49:55;;;;;;;8.73;5.47;;;26.30;72.30;;;;;;2339439;57;21095;-69
2021/06/23 10:52:31;;;;;;;7.40;6.00;;;26.30;71.10;;;;;;2344507;53;20983;-73
2021/06/23 10:55:01;;;;;;;6.43;5.45;;;26.40;71.30;;;;;;2346523;54;20912;-70
2021/06/23 10:57:31;;;;;;;7.18;5.93;;;26.40;71.70;;;;;;2589898;52;21042;-68
2021/06/23 10:59:59;;;;;;;7.00;6.18;;;26.40;71.50;;;;;;2345636;53;20983;-69
2021/06/23 11:02:37;;;;;;;6.32;5.43;;;26.40;71.70;;;;;;2346165;53;20928;-69
2021/06/23 11:05:10;;;;;;;6.12;4.95;;;26.50;71.10;;;;;;2351410;53;20966;-71
2021/06/23 11:07:49;;;;;;;5.57;4.53;;;26.50;71.30;;;;;;2348210;53;20963;-68
2021/06/23 11:10:38;;;;;;;6.55;5.30;;;26.40;71.70;;;;;;2327508;53;20934;-68
2021/06/23 11:13:15;;;;;;;7.00;5.32;;;26.50;70.30;;;;;;2349218;53;20958;-68
2021/06/23 11:15:45;;;;;;;6.65;5.45;;;26.50;71.40;;;;;;2348751;53;20982;-68
2021/06/23 11:18:37;;;;;;;6.32;5.28;;;26.50;71.50;;;;;;2351966;53;21465;-69
2021/06/23 11:21:22;;;;;;;6.40;4.87;;;26.60;69.90;;;;;;2587008;52;20933;-67
2021/06/23 11:24:19;;;;;;;6.68;5.15;;;26.60;69.80;;;;;;2347501;53;21506;-67
2021/06/23 11:26:52;;;;;;;5.37;4.70;;;26.60;70.00;;;;;;2386224;53;20966;-70
2021/06/23 11:29:22;;;;;;;5.60;4.35;;;26.60;70.90;;;;;;2347237;53;20986;-68
2021/06/23 11:32:01;;;;;;;5.70;4.80;;;26.70;71.80;;;;;;2331787;53;20972;-67
2021/06/23 11:35:00;;;;;;;6.20;4.90;;;26.80;71.60;;;;;;2330973;53;21010;-67
2021/06/23 11:37:29;;;;;;;5.75;4.93;;;26.90;70.80;;;;;;2350141;53;20994;-70
2021/06/23 11:40:12;;;;;;;5.90;5.20;;;26.90;71.70;;;;;;2349301;53;21050;-70
2021/06/23 11:42:38;;;;;;;6.35;5.32;;;27.00;69.90;;;;;;2403448;52;20970;-69
2021/06/23 11:45:05;;;;;;;7.10;5.78;;;27.00;71.50;;;;;;2348906;53;20947;-67
2021/06/23 11:47:32;;;;;;;6.47;5.57;;;27.00;71.30;;;;;;2569413;52;20954;-68
2021/06/23 11:49:58;;;;;;;7.45;6.22;;;27.00;71.20;;;;;;2346788;53;21479;-70
2021/06/23 11:52:24;;;;;;;7.22;6.37;;;27.10;71.00;;;;;;2346390;53;21419;-68
2021/06/23 11:54:51;;;;;;;6.30;5.30;;;27.10;70.50;;;;;;2348274;53;20954;-69
2021/06/23 11:57:17;;;;;;;6.68;5.87;;;27.10;70.20;;;;;;2348874;53;20962;-69
2021/06/23 11:59:44;;;;;;;6.12;5.50;;;27.10;70.30;;;;;;2347893;53;21810;-68
2021/06/23 12:02:10;;;;;;;7.43;6.32;;;27.10;70.40;;;;;;2421774;52;20930;-67
2021/06/23 12:04:37;;;;;;;7.57;6.32;;;27.10;70.40;;;;;;2346227;53;20946;-69
2021/06/23 12:07:04;;;;;;;6.72;5.70;;;27.10;70.50;;;;;;2349140;53;21034;-71
2021/06/23 12:09:30;;;;;;;7.28;6.37;;;27.10;70.80;;;;;;2350659;53;20921;-67
2021/06/23 12:11:58;;;;;;;6.68;5.90;;;27.10;71.00;;;;;;2348727;53;20943;-69
2021/06/23 12:14:25;;;;;;;6.47;5.53;;;27.10;70.70;;;;;;2353370;53;21058;-67
2021/06/23 12:16:51;;;;;;;7.00;5.87;;;27.20;70.70;;;;;;2414580;52;21093;-68
2021/06/23 12:19:17;;;;;;;7.15;6.05;;;27.20;70.70;;;;;;2345786;53;20961;-70
2021/06/23 12:21:44;;;;;;;7.00;6.07;;;27.20;70.90;;;;;;2348889;53;20910;-68
2021/06/23 12:24:10;;;;;;;7.40;6.43;;;27.30;71.00;;;;;;2342526;53;20938;-66
2021/06/23 12:26:36;;;;;;;6.97;6.00;;;27.40;71.00;;;;;;2349944;53;20970;-69
2021/06/23 12:29:05;;;;;;;7.87;6.12;;;27.40;70.80;;;;;;2347932;53;21089;-69
2021/06/23 12:31:32;;;;;;;6.12;5.25;;;27.50;70.50;;;;;;2351017;53;21313;-68
2021/06/23 12:33:59;;;;;;;6.50;5.15;;;27.50;70.00;;;;;;2587324;52;20950;-67
2021/06/23 12:36:27;;;;;;;7.50;6.22;;;27.50;69.70;;;;;;2560987;52;20914;-67
2021/06/23 12:38:53;;;;;;;6.53;5.53;;;27.50;69.30;;;;;;2350601;53;21002;-69
2021/06/23 12:41:20;;;;;;;7.37;6.12;;;27.50;69.00;;;;;;2347980;53;20974;-69
2021/06/23 12:43:46;;;;;;;6.40;5.53;;;27.60;69.00;;;;;;2326874;53;21439;-68
2021/06/23 12:46:12;;;;;;;6.30;5.28;;;27.50;69.30;;;;;;2345515;53;21407;-68
2021/06/23 12:48:41;;;;;;;6.72;4.90;;;27.50;69.40;;;;;;2347329;53;20930;-68
2021/06/23 12:51:09;;;;;;;6.40;5.70;;;27.50;69.30;;;;;;2348225;53;21045;-67
2021/06/23 12:53:35;;;;;;;6.75;5.12;;;27.50;68.70;;;;;;2350048;53;20997;-67
2021/06/23 12:56:04;;;;;;;6.47;5.10;;;27.50;68.90;;;;;;2350523;53;21474;-71
2021/06/23 12:58:30;;;;;;;5.43;4.82;;;27.50;69.30;;;;;;2348174;53;21119;-67
2021/06/23 13:00:56;;;;;;;6.37;5.05;;;27.50;69.80;;;;;;2587077;52;21006;-67
2021/06/23 13:03:23;;;;;;;6.20;5.10;;;27.60;69.60;;;;;;2346491;53;20926;-71
2021/06/23 13:05:49;;;;;;;6.75;4.75;;;27.60;69.50;;;;;;2347657;53;20974;-67